バンクーバー の空港の天気 - METARとTAF

バンクーバー国際空港 ( CYVR / YVR ) - カナダ ブリティッシュコロンビア州バンクーバー
飛行場実況気象(Metar)
観測時間11/16 08:00 PST (11/16 16:00 UTC)
風向・風速東北東 1m/s
視程10km以上
天気現象
少しの雲 雲底高度 240m
少しの雲 雲底高度 820m
全天の8割程度の雲 雲底高度 5180m
全天の8割程度の雲 雲底高度 7620m
気温9℃
湿度93%
気圧1024.6hPa
METARCYVR 161600Z 06002KT 20SM FEW008 FEW027 BKN170 BKN250 09/08 A3025 RMK SC1SC2AC5CS1 SC TR CS TR CONTRAILS SLP246
過去の天気等 Google飛行場航空写真 Wunderground天気予報

過去48時間のMETAR

飛行場予報(TAF)
発表時間: 11/16 06:39 PST (11/16 14:39 UTC)
予報対象時間: 16日7時 PST ~ 17日10時 PST
風向・風速西北西 4m/s
視程10km以上
少しの雲 雲底高度 210m
全天の8割程度の雲 雲底高度 460m
全天を覆う雲 雲底高度 910m
16日7時 PST ~ 16日10時 PST に一時的に
全天の4割程度の雲 雲底高度 460m
全天を覆う雲 雲底高度 910m
16日10時 PST から
風向・風速西 4m/s
視程10km以上
全天の4割程度の雲 雲底高度 460m
全天の8割程度の雲 雲底高度 910m
16日10時 PST ~ 16日13時 PST に一時的に
全天の8割程度の雲 雲底高度 460m
全天を覆う雲 雲底高度 910m
16日13時 PST から
風向・風速西 5m/s
視程10km以上
少しの雲 雲底高度 610m
全天の4割程度の雲 雲底高度 1520m
16日21時 PST ~ 16日23時 PST に徐々に
風向・風速北東 3m/s
TAF CYVR 161439Z 1615/1718 30007KT P6SM FEW007 BKN015 OVC030
TEMPO 1615/1618 SCT015 OVC030
FM161800 28008KT P6SM SCT015 BKN030
TEMPO 1618/1621 BKN015 OVC030
FM162100 28010KT P6SM FEW020 SCT050
BECMG 1705/1707 05005KT RMK NXT FCST BY 161800Z